This is the latest recevied weather packets stored in our database for station/object LA4GY-1. If no packets are shown the sender has not sent any weather packets the latest 10 day(s).
| Time | Temp. | Humidity | Pressure | Rain* | Wind** | Luminosity | Snow |
|---|---|---|---|---|---|---|---|
| 1788539502 | 13.33° C | 88% | 998.3 hPa | 0 mm | - | - | - |
| 1788538902 | 13.33° C | 88% | 998.3 hPa | 0 mm | - | - | - |
| 1788538302 | 13.89° C | 88% | 998.3 hPa | 0 mm | - | - | - |
| 1788537702 | 13.89° C | 88% | 998.2 hPa | 0 mm | - | - | - |
| 1788537072 | 14.44° C | 88% | 998.1 hPa | 0.51 mm | - | - | - |
| 1788536472 | 14.44° C | 90% | 998.2 hPa | 0.51 mm | - | - | - |
| 1788535842 | 14.44° C | 89% | 998.2 hPa | 0.51 mm | - | - | - |
| 1788535242 | 14.44° C | 87% | 998.4 hPa | 0.51 mm | - | - | - |
| 1788534642 | 15° C | 86% | 998.4 hPa | 0.51 mm | - | - | - |
| 1788534012 | 15.56° C | 83% | 998.4 hPa | 0.51 mm | - | - | - |
| 1788533412 | 16.11° C | 79% | 998.4 hPa | 0 mm | - | - | - |
| 1788532811 | 17.22° C | 77% | 998.4 hPa | 0 mm | - | - | - |
| 1788532182 | 17.78° C | 70% | 998.4 hPa | 0 mm | - | - | - |
| 1788531582 | 17.78° C | 69% | 998.3 hPa | 0 mm | - | - | - |
| 1788530982 | 17.22° C | 70% | 998.4 hPa | 0 mm | - | - | - |
| 1788530351 | 17.22° C | 74% | 998.3 hPa | 0 mm | - | - | - |
| 1788529751 | 17.22° C | 73% | 998.4 hPa | 0 mm | - | - | - |
| 1788529165 | 17.22° C | 73% | 998.5 hPa | 0 mm | - | - | - |
| 1788528551 | 17.22° C | 72% | 998.5 hPa | 0 mm | - | - | - |
| 1788527921 | 17.22° C | 70% | 998.7 hPa | 0 mm | - | - | - |
| 1788527291 | 17.22° C | 73% | 998.8 hPa | 0 mm | - | - | - |
| 1788526691 | 17.22° C | 74% | 998.8 hPa | 0 mm | - | - | - |
| 1788526091 | 17.78° C | 73% | 998.8 hPa | 0 mm | - | - | - |
| 1788525461 | 17.78° C | 75% | 998.8 hPa | 0 mm | - | - | - |
| 1788524861 | 17.78° C | 78% | 998.9 hPa | 0 mm | - | - | - |
* Rain latest hour (hover to see other rain measurements)
** Current wind speed in m/s (hover to see current wind gust speed)